Time;durP1;ratioP1;P1;durP2;ratioP2;P2;SDS_P1;SDS_P2;PMS_P1;PMS_P2;Temp;Humidity;BMP_temperature;BMP_pressure;BME280_temperature;BME280_humidity;BME280_pressure;Samples;Min_cycle;Max_cycle;Signal;HPM_P1;HPM_P2
2023/07/01 00:01:48;;;;;;;4.00;2.03;;;17.20;99.90;;;;;;5037617;28;20226;-84
2023/07/01 00:04:15;;;;;;;2.95;2.13;;;17.20;99.90;;;;;;5037608;28;20194;-81
2023/07/01 00:06:42;;;;;;;3.55;2.45;;;17.10;99.90;;;;;;5037140;28;20252;-81
2023/07/01 00:09:10;;;;;;;3.17;2.50;;;17.00;99.90;;;;;;5037767;28;20199;-82
2023/07/01 00:11:37;;;;;;;2.45;2.25;;;17.00;99.90;;;;;;5036448;28;20198;-80
2023/07/01 00:14:05;;;;;;;3.03;2.67;;;17.00;99.90;;;;;;5036680;28;20249;-80
2023/07/01 00:16:32;;;;;;;3.53;2.90;;;17.00;99.90;;;;;;5037061;28;20495;-86
2023/07/01 00:18:59;;;;;;;4.45;2.60;;;17.00;99.90;;;;;;5036766;28;20690;-82
2023/07/01 00:21:26;;;;;;;4.00;3.22;;;17.00;99.90;;;;;;5037370;28;20207;-87
2023/07/01 00:23:53;;;;;;;2.80;2.60;;;17.00;99.90;;;;;;5037546;28;20229;-83
2023/07/01 00:26:20;;;;;;;2.92;2.70;;;17.00;99.90;;;;;;5037838;28;20518;-83
2023/07/01 00:28:48;;;;;;;4.13;2.85;;;16.90;99.90;;;;;;5037841;28;20289;-82
2023/07/01 00:31:16;;;;;;;4.90;3.70;;;16.90;99.90;;;;;;5037808;28;20203;-82
2023/07/01 00:33:43;;;;;;;3.67;2.65;;;16.90;99.90;;;;;;5041303;28;20484;-85
2023/07/01 00:36:10;;;;;;;3.90;2.67;;;16.90;99.90;;;;;;5057569;28;20306;-87
2023/07/01 00:38:37;;;;;;;3.03;2.83;;;16.90;99.90;;;;;;5057579;28;20194;-85
2023/07/01 00:41:04;;;;;;;4.95;3.15;;;16.90;99.90;;;;;;5038725;28;20371;-84
2023/07/01 00:43:31;;;;;;;3.20;2.88;;;16.90;99.90;;;;;;5037945;28;20642;-86
2023/07/01 00:45:58;;;;;;;4.03;3.63;;;16.90;99.90;;;;;;5038255;28;20239;-86
2023/07/01 00:48:28;;;;;;;5.22;2.80;;;16.80;99.90;;;;;;5038243;28;20229;-87
2023/07/01 00:50:56;;;;;;;4.38;2.63;;;16.90;99.90;;;;;;5038005;28;20449;-88
2023/07/01 00:53:24;;;;;;;2.97;2.72;;;16.80;99.90;;;;;;5037890;28;20245;-85
2023/07/01 00:55:52;;;;;;;3.03;2.40;;;16.80;99.90;;;;;;5037536;28;20302;-89
2023/07/01 00:58:19;;;;;;;4.32;2.65;;;16.80;99.90;;;;;;5037068;28;20539;-85
2023/07/01 01:00:46;;;;;;;3.38;2.53;;;16.80;99.90;;;;;;5037594;28;20587;-86
2023/07/01 01:03:22;;;;;;;3.45;2.38;;;16.80;99.90;;;;;;5037604;28;20187;-88
2023/07/01 01:05:58;;;;;;;2.20;2.00;;;16.80;99.90;;;;;;5085870;22;20712;-89
2023/07/01 01:08:29;;;;;;;2.40;2.20;;;16.80;99.90;;;;;;5077273;28;20496;-89
2023/07/01 01:11:00;;;;;;;2.33;1.70;;;16.80;99.90;;;;;;5077352;28;20882;-84
2023/07/01 01:13:29;;;;;;;1.95;1.60;;;16.80;99.90;;;;;;5077665;28;20204;-88
2023/07/01 01:15:58;;;;;;;1.73;1.63;;;16.80;99.90;;;;;;5077763;28;20310;-89
2023/07/01 01:18:28;;;;;;;3.90;1.50;;;16.80;99.90;;;;;;5077137;28;20632;-80
2023/07/01 01:20:57;;;;;;;1.58;1.40;;;16.80;99.90;;;;;;5077151;28;20200;-82
2023/07/01 01:23:28;;;;;;;1.48;1.33;;;16.80;99.90;;;;;;5076750;28;20575;-82
2023/07/01 01:26:06;;;;;;;2.58;1.50;;;16.80;99.90;;;;;;5078030;28;20229;-88
2023/07/01 01:28:35;;;;;;;1.83;1.73;;;16.80;99.90;;;;;;5077158;28;20200;-88
2023/07/01 01:31:02;;;;;;;1.77;1.67;;;16.80;99.90;;;;;;5076498;28;20888;-83
2023/07/01 01:33:29;;;;;;;2.10;1.90;;;16.80;99.90;;;;;;5090340;28;20234;-86
2023/07/01 01:36:02;;;;;;;2.03;1.90;;;16.80;99.90;;;;;;5096681;28;20303;-88
2023/07/01 01:38:33;;;;;;;2.55;2.35;;;16.80;99.90;;;;;;5082248;28;20205;-84
2023/07/01 01:41:06;;;;;;;2.85;2.38;;;16.80;99.90;;;;;;5077130;28;20221;-85
2023/07/01 01:43:43;;;;;;;3.28;2.53;;;16.80;99.90;;;;;;5075556;28;20224;-89
2023/07/01 01:46:11;;;;;;;3.13;2.60;;;16.80;99.90;;;;;;5075544;28;20204;-89
2023/07/01 01:48:40;;;;;;;2.90;2.70;;;16.80;99.90;;;;;;5079432;28;20220;-86
2023/07/01 01:51:08;;;;;;;3.70;3.10;;;16.80;99.90;;;;;;5095316;28;20205;-81
2023/07/01 01:53:37;;;;;;;3.85;3.30;;;16.80;99.90;;;;;;5095766;28;20197;-78
2023/07/01 01:56:05;;;;;;;3.85;3.10;;;16.70;99.90;;;;;;5095101;28;20303;-78
2023/07/01 01:58:32;;;;;;;3.50;3.20;;;16.70;99.90;;;;;;5074569;28;20569;-77
2023/07/01 02:01:01;;;;;;;2.83;2.63;;;16.70;99.90;;;;;;5074816;28;20197;-77
2023/07/01 02:03:28;;;;;;;3.33;3.03;;;16.70;99.90;;;;;;5075283;28;20296;-78
2023/07/01 02:05:55;;;;;;;3.92;3.03;;;16.70;99.90;;;;;;5073781;28;20243;-76
2023/07/01 02:08:22;;;;;;;4.00;3.70;;;16.70;99.90;;;;;;5074343;28;20268;-76
2023/07/01 02:10:49;;;;;;;4.43;4.13;;;16.70;99.90;;;;;;5074716;28;20228;-78
2023/07/01 02:13:16;;;;;;;3.40;3.20;;;16.70;99.90;;;;;;5074042;28;20219;-79
2023/07/01 02:15:43;;;;;;;4.38;3.97;;;16.70;99.90;;;;;;5074310;28;20229;-79
2023/07/01 02:18:11;;;;;;;4.72;4.32;;;16.60;99.90;;;;;;5074639;28;20239;-79
2023/07/01 02:20:38;;;;;;;4.40;4.00;;;16.70;99.90;;;;;;5074703;28;20557;-81
2023/07/01 02:23:05;;;;;;;3.90;3.60;;;16.70;99.90;;;;;;5095227;28;20243;-79
2023/07/01 02:25:32;;;;;;;4.65;4.25;;;16.70;99.90;;;;;;5095193;28;20204;-79
2023/07/01 02:27:59;;;;;;;4.70;3.55;;;16.70;99.90;;;;;;5091027;28;20197;-82
2023/07/01 02:30:26;;;;;;;3.92;3.50;;;16.70;99.90;;;;;;5074991;28;20189;-79
2023/07/01 02:32:53;;;;;;;4.07;3.75;;;16.70;99.90;;;;;;5084164;28;20218;-79
2023/07/01 02:35:21;;;;;;;3.55;3.25;;;16.70;99.90;;;;;;5094744;28;20270;-80
2023/07/01 02:37:48;;;;;;;3.90;3.60;;;16.70;99.90;;;;;;5094911;28;20224;-79
2023/07/01 02:40:15;;;;;;;4.15;3.85;;;16.70;99.90;;;;;;5095441;28;20506;-86
2023/07/01 02:42:42;;;;;;;4.10;3.80;;;16.70;99.90;;;;;;5094970;28;20270;-81
2023/07/01 02:45:10;;;;;;;4.15;3.85;;;16.70;99.90;;;;;;5095423;28;20223;-86
2023/07/01 02:47:37;;;;;;;4.75;4.35;;;16.70;99.90;;;;;;5079655;28;20290;-83
2023/07/01 02:50:05;;;;;;;3.80;3.50;;;16.80;99.90;;;;;;5075236;28;20483;-82
2023/07/01 02:52:34;;;;;;;4.07;3.70;;;16.80;99.90;;;;;;5086607;28;20208;-84
2023/07/01 02:55:00;;;;;;;3.75;3.30;;;16.80;99.90;;;;;;5094684;28;20767;-84
2023/07/01 02:57:27;;;;;;;3.50;3.20;;;16.80;99.90;;;;;;5095265;28;20189;-87
2023/07/01 02:59:56;;;;;;;3.97;3.58;;;16.80;99.90;;;;;;5095215;28;20561;-85
2023/07/01 03:02:23;;;;;;;3.53;3.20;;;16.80;99.90;;;;;;5073672;28;20209;-85
2023/07/01 03:04:50;;;;;;;3.55;3.35;;;16.70;99.90;;;;;;5074115;28;20596;-80
2023/07/01 03:07:17;;;;;;;3.30;2.95;;;16.80;99.90;;;;;;5073807;28;20204;-85
2023/07/01 03:09:45;;;;;;;3.22;3.03;;;16.80;99.90;;;;;;5087404;28;20207;-86
2023/07/01 03:12:12;;;;;;;3.30;3.00;;;16.80;99.90;;;;;;5095857;28;20207;-86
2023/07/01 03:14:39;;;;;;;4.85;3.05;;;16.80;99.90;;;;;;5095321;28;20430;-88
2023/07/01 03:17:06;;;;;;;3.90;3.50;;;16.80;99.90;;;;;;5094835;28;20216;-86
2023/07/01 03:19:34;;;;;;;7.22;4.25;;;16.90;99.90;;;;;;5079307;28;20233;-84
2023/07/01 03:22:01;;;;;;;10.93;4.50;;;16.90;99.90;;;;;;5073778;28;20247;-86
2023/07/01 03:24:33;;;;;;;8.38;4.60;;;17.10;99.90;;;;;;5074639;28;20224;-88
2023/07/01 03:27:03;;;;;;;11.25;5.97;;;17.20;99.90;;;;;;5074334;28;20197;-90
2023/07/01 03:29:30;;;;;;;8.00;4.53;;;17.30;99.90;;;;;;5073893;28;20284;-88
2023/07/01 03:31:57;;;;;;;10.80;6.18;;;17.30;99.90;;;;;;5074277;28;20228;-87
2023/07/01 03:34:24;;;;;;;16.70;5.90;;;17.40;99.90;;;;;;5074996;28;20581;-87
2023/07/01 03:36:51;;;;;;;11.40;6.85;;;17.40;99.90;;;;;;5074877;28;20282;-87
2023/07/01 03:39:18;;;;;;;10.52;6.10;;;17.40;99.90;;;;;;5075368;28;20220;-84
2023/07/01 03:41:44;;;;;;;12.90;6.18;;;17.40;99.90;;;;;;5075241;28;20580;-82
2023/07/01 03:44:13;;;;;;;12.82;6.10;;;17.40;99.90;;;;;;5091020;28;20283;-87
2023/07/01 03:46:40;;;;;;;14.30;6.65;;;17.50;99.90;;;;;;5095116;28;20536;-87
2023/07/01 03:49:07;;;;;;;11.75;5.88;;;17.50;99.90;;;;;;5088056;28;20213;-87
2023/07/01 03:51:34;;;;;;;10.73;5.50;;;17.50;99.90;;;;;;5074945;28;20197;-85
2023/07/01 03:54:01;;;;;;;13.90;6.30;;;17.50;99.90;;;;;;5087874;28;20203;-83
2023/07/01 03:56:28;;;;;;;13.38;5.60;;;17.60;99.90;;;;;;5095020;28;20227;-85
2023/07/01 03:58:55;;;;;;;11.90;5.00;;;17.50;99.90;;;;;;5094372;28;20189;-81
2023/07/01 04:01:23;;;;;;;9.38;5.30;;;17.50;99.90;;;;;;5093510;28;20645;-85
2023/07/01 04:03:53;;;;;;;13.82;7.45;;;17.50;99.90;;;;;;5083135;28;20209;-84
2023/07/01 04:06:21;;;;;;;16.92;6.78;;;17.50;99.90;;;;;;5074788;28;20277;-85
2023/07/01 04:08:54;;;;;;;11.57;5.97;;;17.60;99.90;;;;;;5075223;28;20223;-85
2023/07/01 04:11:21;;;;;;;7.07;4.32;;;17.60;99.90;;;;;;5079548;28;20219;-85
2023/07/01 04:13:48;;;;;;;8.25;4.00;;;17.60;99.90;;;;;;5083331;28;20290;-85
2023/07/01 04:16:15;;;;;;;11.15;4.75;;;17.60;99.90;;;;;;5087993;28;20224;-82
2023/07/01 04:18:44;;;;;;;11.77;5.43;;;17.60;99.90;;;;;;5094275;28;20303;-84
2023/07/01 04:21:10;;;;;;;12.02;5.20;;;17.60;99.90;;;;;;5094441;28;20225;-84
2023/07/01 04:23:37;;;;;;;9.88;4.85;;;17.70;99.90;;;;;;5094751;28;20232;-85
2023/07/01 04:26:05;;;;;;;11.98;5.60;;;17.60;99.90;;;;;;5093228;28;20200;-83
2023/07/01 04:28:32;;;;;;;11.20;6.03;;;17.60;99.90;;;;;;5094765;28;20668;-84
2023/07/01 04:30:59;;;;;;;10.57;5.28;;;17.60;99.90;;;;;;5094548;28;20196;-86
2023/07/01 04:33:26;;;;;;;12.48;6.57;;;17.70;99.90;;;;;;5095919;28;20189;-83
2023/07/01 04:35:54;;;;;;;11.52;5.03;;;17.70;99.90;;;;;;5098249;28;20221;-85
2023/07/01 04:38:21;;;;;;;11.15;4.30;;;17.70;99.90;;;;;;5098375;28;20224;-86
2023/07/01 04:40:48;;;;;;;9.57;3.83;;;17.70;99.90;;;;;;5078710;28;20292;-83
2023/07/01 04:43:16;;;;;;;7.05;4.03;;;17.70;99.90;;;;;;5077442;28;20196;-83
2023/07/01 04:45:43;;;;;;;9.93;4.63;;;17.70;99.90;;;;;;5077100;28;20212;-83
2023/07/01 04:48:10;;;;;;;8.70;5.50;;;17.70;99.90;;;;;;5077200;28;20209;-82
2023/07/01 04:50:37;;;;;;;11.73;4.30;;;17.70;99.90;;;;;;5077238;28;20205;-82
2023/07/01 04:53:06;;;;;;;8.52;4.43;;;17.70;99.90;;;;;;5077321;28;20201;-83
2023/07/01 04:55:33;;;;;;;11.40;4.60;;;17.70;99.90;;;;;;5077276;28;20209;-83
2023/07/01 04:57:59;;;;;;;9.30;4.70;;;17.70;99.90;;;;;;5077495;28;20189;-82
2023/07/01 05:00:26;;;;;;;11.90;4.30;;;17.70;99.90;;;;;;5076486;28;20497;-81
2023/07/01 05:02:54;;;;;;;9.85;4.07;;;17.70;99.90;;;;;;5077089;28;20205;-85
2023/07/01 05:05:21;;;;;;;9.07;4.38;;;17.70;99.90;;;;;;5076669;28;20568;-82
2023/07/01 05:07:48;;;;;;;8.80;4.38;;;17.70;99.90;;;;;;5076094;28;20691;-81
2023/07/01 05:10:16;;;;;;;10.75;4.55;;;17.80;99.90;;;;;;5077476;28;20279;-81
2023/07/01 05:12:43;;;;;;;11.45;4.80;;;17.70;99.90;;;;;;5077366;28;20205;-82
2023/07/01 05:15:11;;;;;;;8.77;5.22;;;17.80;99.90;;;;;;5077046;28;20201;-84
2023/07/01 05:17:38;;;;;;;10.70;5.38;;;17.80;99.90;;;;;;5076919;28;20316;-82
2023/07/01 05:20:06;;;;;;;12.02;5.45;;;17.80;99.90;;;;;;5076720;28;20237;-82
2023/07/01 05:22:33;;;;;;;8.50;5.10;;;17.80;99.90;;;;;;5076006;28;20605;-83
2023/07/01 05:25:00;;;;;;;9.35;5.00;;;17.80;99.90;;;;;;5076988;28;20208;-81
2023/07/01 05:27:28;;;;;;;10.68;4.93;;;17.80;99.90;;;;;;5076727;28;20243;-81
2023/07/01 05:29:55;;;;;;;6.60;3.78;;;17.80;99.90;;;;;;5076596;28;20202;-83
2023/07/01 05:32:22;;;;;;;9.75;5.25;;;17.80;99.90;;;;;;5076605;28;20681;-85
2023/07/01 05:34:49;;;;;;;7.10;4.05;;;17.80;99.90;;;;;;5076420;28;20239;-84
2023/07/01 05:37:16;;;;;;;11.32;5.38;;;17.90;99.90;;;;;;5075912;28;20220;-79
2023/07/01 05:39:43;;;;;;;10.73;5.55;;;17.80;99.90;;;;;;5079526;28;20208;-82
2023/07/01 05:42:10;;;;;;;11.60;5.88;;;17.80;99.90;;;;;;5096275;28;20192;-80
2023/07/01 05:44:38;;;;;;;13.95;5.72;;;17.80;99.90;;;;;;5083002;28;20240;-81
2023/07/01 05:47:06;;;;;;;9.05;4.65;;;17.80;99.90;;;;;;5076222;28;20217;-80
2023/07/01 05:49:33;;;;;;;9.15;5.00;;;17.80;99.90;;;;;;5075966;28;20554;-82
2023/07/01 05:52:00;;;;;;;9.70;5.40;;;17.80;99.90;;;;;;5076224;28;20346;-79
2023/07/01 05:54:26;;;;;;;12.88;6.20;;;17.80;99.90;;;;;;5076146;28;20255;-85
2023/07/01 05:56:53;;;;;;;10.90;5.47;;;17.70;99.90;;;;;;5092966;28;20221;-82
2023/07/01 05:59:20;;;;;;;10.43;5.13;;;17.80;99.90;;;;;;5086562;28;20244;-82
2023/07/01 06:01:48;;;;;;;12.10;4.75;;;17.80;99.90;;;;;;5075965;28;20202;-79
2023/07/01 06:04:15;;;;;;;9.73;4.13;;;17.80;99.90;;;;;;5075180;28;20317;-86
2023/07/01 06:06:42;;;;;;;9.27;5.05;;;17.80;99.90;;;;;;5086289;28;20235;-82
2023/07/01 06:09:10;;;;;;;9.48;4.30;;;17.90;99.90;;;;;;5096204;28;20231;-84
2023/07/01 06:11:36;;;;;;;5.70;4.00;;;17.90;99.90;;;;;;5094665;28;20204;-81
2023/07/01 06:14:03;;;;;;;6.50;3.90;;;17.80;99.90;;;;;;5095772;28;20584;-85
2023/07/01 06:16:30;;;;;;;8.80;4.20;;;17.90;99.90;;;;;;5095526;28;20307;-87
2023/07/01 06:18:59;;;;;;;7.80;3.70;;;17.90;99.90;;;;;;5093619;28;20196;-84
2023/07/01 06:21:26;;;;;;;9.02;4.40;;;17.90;99.90;;;;;;5095884;28;20547;-81
2023/07/01 06:23:55;;;;;;;11.65;4.18;;;17.90;99.90;;;;;;5096007;28;20228;-83
2023/07/01 06:26:23;;;;;;;7.40;4.15;;;17.90;99.90;;;;;;5084626;28;20214;-85
2023/07/01 06:28:49;;;;;;;10.13;4.80;;;17.90;99.90;;;;;;5076005;28;20273;-81
2023/07/01 06:31:16;;;;;;;7.18;4.03;;;17.90;99.90;;;;;;5075603;28;20224;-86
2023/07/01 06:33:44;;;;;;;6.57;4.00;;;17.90;99.90;;;;;;5075335;28;20624;-82
2023/07/01 06:36:14;;;;;;;7.07;3.72;;;18.00;99.90;;;;;;5074749;28;20313;-80
2023/07/01 06:38:41;;;;;;;10.20;4.82;;;18.00;99.90;;;;;;5074791;28;20201;-82
2023/07/01 06:41:08;;;;;;;6.07;4.10;;;18.00;99.90;;;;;;5075209;28;20198;-86
2023/07/01 06:43:38;;;;;;;5.45;3.47;;;18.00;99.90;;;;;;5084814;28;20208;-82
2023/07/01 06:46:06;;;;;;;7.40;3.65;;;18.10;99.90;;;;;;5094898;28;20624;-78
2023/07/01 06:48:33;;;;;;;5.53;3.67;;;18.00;99.90;;;;;;5082295;28;20605;-83
2023/07/01 06:51:00;;;;;;;6.32;4.50;;;18.00;99.90;;;;;;5074973;28;20202;-83
2023/07/01 06:53:28;;;;;;;6.70;3.50;;;18.00;99.90;;;;;;5074833;28;20238;-82
2023/07/01 06:55:55;;;;;;;6.97;2.92;;;18.10;99.90;;;;;;5074745;28;20229;-85
2023/07/01 06:58:22;;;;;;;7.53;3.22;;;18.10;99.90;;;;;;5075770;28;20217;-87
2023/07/01 07:00:49;;;;;;;5.10;3.30;;;18.10;99.90;;;;;;5075378;28;20197;-82
2023/07/01 07:03:16;;;;;;;4.85;3.35;;;18.10;99.90;;;;;;5075453;28;20617;-83
2023/07/01 07:05:43;;;;;;;4.13;2.50;;;18.10;99.90;;;;;;5075192;28;20240;-86
2023/07/01 07:08:10;;;;;;;4.05;2.47;;;18.10;99.90;;;;;;5075334;28;20189;-86
2023/07/01 07:10:38;;;;;;;3.15;1.50;;;18.10;99.90;;;;;;5075337;28;20527;-86
2023/07/01 07:13:05;;;;;;;4.30;1.60;;;18.10;99.90;;;;;;5074893;28;20193;-82
2023/07/01 07:15:32;;;;;;;5.28;1.92;;;18.10;99.90;;;;;;5075747;28;20365;-87
2023/07/01 07:18:00;;;;;;;6.18;2.05;;;18.20;99.90;;;;;;5074843;28;20801;-82
2023/07/01 07:20:27;;;;;;;4.95;2.00;;;18.10;99.90;;;;;;5074661;28;20643;-84
2023/07/01 07:22:54;;;;;;;6.47;2.15;;;18.20;99.90;;;;;;5074537;28;20246;-79
2023/07/01 07:25:22;;;;;;;5.13;1.85;;;18.20;99.90;;;;;;5074597;28;20196;-83
2023/07/01 07:27:50;;;;;;;5.18;1.98;;;18.20;99.90;;;;;;5074708;28;20201;-82
2023/07/01 07:30:17;;;;;;;4.50;1.90;;;18.20;99.90;;;;;;5094197;28;20228;-85
2023/07/01 07:32:44;;;;;;;4.43;2.05;;;18.20;99.90;;;;;;5095290;28;20227;-84
2023/07/01 07:35:11;;;;;;;6.15;1.70;;;18.20;99.90;;;;;;5094470;28;20212;-83
2023/07/01 07:37:38;;;;;;;2.65;1.45;;;18.20;99.90;;;;;;5081775;28;20308;-85
2023/07/01 07:40:07;;;;;;;5.03;1.70;;;18.20;99.90;;;;;;5075306;28;20193;-86
2023/07/01 07:42:34;;;;;;;4.05;1.52;;;18.20;99.90;;;;;;5074737;28;20208;-84
2023/07/01 07:45:04;;;;;;;4.40;2.15;;;18.20;99.90;;;;;;5075861;28;20498;-83
2023/07/01 07:47:31;;;;;;;6.18;2.25;;;18.20;99.90;;;;;;5095450;28;20212;-85
2023/07/01 07:49:58;;;;;;;9.63;2.45;;;18.10;99.90;;;;;;5093980;28;20279;-83
2023/07/01 07:52:25;;;;;;;5.65;2.30;;;18.20;99.90;;;;;;5074832;28;20197;-86
2023/07/01 07:54:52;;;;;;;7.32;3.13;;;18.20;99.90;;;;;;5074794;28;20235;-82
2023/07/01 07:57:19;;;;;;;6.05;3.03;;;18.20;99.90;;;;;;5074548;28;20276;-82
2023/07/01 07:59:46;;;;;;;11.18;4.80;;;18.20;99.90;;;;;;5074798;28;20229;-87
2023/07/01 08:02:14;;;;;;;9.63;3.83;;;18.20;99.90;;;;;;5074503;28;20205;-81
2023/07/01 08:04:41;;;;;;;7.75;3.53;;;18.30;99.90;;;;;;5072635;28;20225;-82
2023/07/01 08:07:08;;;;;;;7.25;3.65;;;18.20;99.90;;;;;;5074506;28;20284;-85
2023/07/01 08:09:35;;;;;;;8.85;4.40;;;18.20;99.90;;;;;;5077701;28;20190;-79
2023/07/01 08:12:03;;;;;;;6.15;3.65;;;18.20;99.90;;;;;;5077948;28;20194;-89
2023/07/01 08:14:30;;;;;;;8.05;4.00;;;18.20;99.90;;;;;;5078596;28;20212;-85
2023/07/01 08:16:59;;;;;;;7.07;3.72;;;18.30;99.90;;;;;;5078832;28;20221;-85
2023/07/01 08:19:27;;;;;;;5.60;4.30;;;18.30;99.90;;;;;;5078546;28;20284;-86
2023/07/01 08:21:55;;;;;;;7.78;5.03;;;18.20;99.90;;;;;;5078004;28;20201;-83
2023/07/01 08:24:23;;;;;;;8.70;4.82;;;18.30;99.90;;;;;;5076744;28;20232;-87
2023/07/01 08:26:50;;;;;;;11.18;6.20;;;18.30;99.90;;;;;;5077002;28;20189;-85
2023/07/01 08:29:17;;;;;;;10.55;6.50;;;18.30;99.90;;;;;;5077460;28;20262;-86
2023/07/01 08:31:44;;;;;;;10.57;6.45;;;18.30;99.90;;;;;;5077593;28;20239;-86
2023/07/01 08:34:11;;;;;;;16.55;6.88;;;18.40;99.90;;;;;;5078112;28;20225;-87
2023/07/01 08:36:39;;;;;;;12.70;7.82;;;18.40;99.90;;;;;;5077841;28;20248;-86
2023/07/01 08:39:07;;;;;;;10.65;7.35;;;18.40;99.90;;;;;;5078283;28;20242;-86
2023/07/01 08:41:41;;;;;;;14.50;7.18;;;18.50;99.90;;;;;;5078369;28;20197;-86
2023/07/01 08:44:11;;;;;;;11.18;7.95;;;18.50;99.90;;;;;;5078393;28;20198;-87
2023/07/01 08:46:39;;;;;;;16.27;8.32;;;18.50;99.90;;;;;;5078597;28;20201;-87
2023/07/01 08:49:08;;;;;;;13.32;7.75;;;18.50;99.90;;;;;;5077895;28;20600;-85
2023/07/01 08:51:42;;;;;;;11.48;7.55;;;18.50;99.90;;;;;;5078043;28;20605;-91
2023/07/01 08:54:09;;;;;;;13.63;8.73;;;18.50;99.90;;;;;;5082754;28;20232;-87
2023/07/01 08:56:37;;;;;;;16.85;8.38;;;18.50;99.90;;;;;;5098352;28;20236;-84
2023/07/01 08:59:06;;;;;;;15.50;9.52;;;18.50;99.90;;;;;;5098036;28;20188;-88
2023/07/01 09:01:33;;;;;;;14.10;8.80;;;18.50;99.90;;;;;;5098019;28;20302;-86
2023/07/01 09:04:02;;;;;;;15.13;9.30;;;18.50;99.90;;;;;;5097666;28;20231;-86
2023/07/01 09:06:29;;;;;;;16.45;9.35;;;18.50;99.90;;;;;;5097559;28;20257;-83
2023/07/01 09:08:57;;;;;;;11.52;7.97;;;18.50;99.90;;;;;;5097928;28;20349;-86
2023/07/01 09:11:24;;;;;;;17.20;8.02;;;18.50;99.90;;;;;;5097653;28;20243;-85
2023/07/01 09:13:56;;;;;;;11.13;6.65;;;18.50;99.90;;;;;;5097284;28;20204;-87
2023/07/01 09:16:32;;;;;;;11.35;7.70;;;18.60;99.90;;;;;;5080841;28;20209;-85
2023/07/01 09:19:06;;;;;;;13.25;7.32;;;18.60;99.90;;;;;;5076762;28;20221;-84
2023/07/01 09:21:34;;;;;;;14.13;8.35;;;18.60;99.90;;;;;;5076768;28;20619;-83
2023/07/01 09:24:05;;;;;;;14.27;8.15;;;18.60;99.90;;;;;;5083863;28;20204;-86
2023/07/01 09:26:33;;;;;;;17.10;7.85;;;18.60;99.90;;;;;;5097113;28;20197;-84
2023/07/01 09:29:07;;;;;;;12.85;6.38;;;18.60;99.90;;;;;;5091922;28;20657;-84
2023/07/01 09:31:44;;;;;;;12.05;6.72;;;18.60;99.90;;;;;;5076963;28;20199;-81
2023/07/01 09:34:11;;;;;;;12.48;6.93;;;18.60;99.90;;;;;;5077548;28;20267;-85
2023/07/01 09:36:38;;;;;;;10.23;6.43;;;18.70;99.90;;;;;;5077275;28;20288;-85
2023/07/01 09:39:06;;;;;;;15.80;6.55;;;18.70;99.90;;;;;;5076903;28;20235;-86
2023/07/01 09:41:33;;;;;;;10.88;6.10;;;18.70;99.90;;;;;;5076208;28;20204;-85
2023/07/01 09:44:00;;;;;;;13.13;6.55;;;18.70;99.90;;;;;;5076868;28;20197;-87
2023/07/01 09:46:42;;;;;;;14.73;7.15;;;18.60;99.90;;;;;;5076646;28;20189;-83
2023/07/01 09:49:09;;;;;;;11.32;5.95;;;18.70;99.90;;;;;;5076205;28;20185;-83
2023/07/01 09:51:46;;;;;;;14.32;6.72;;;18.70;99.90;;;;;;5076268;28;20197;-83
2023/07/01 09:54:26;;;;;;;14.65;6.78;;;18.70;99.90;;;;;;5076771;28;20215;-81
2023/07/01 09:56:55;;;;;;;11.40;5.90;;;18.70;99.90;;;;;;5076051;28;20271;-81
2023/07/01 09:59:23;;;;;;;12.68;5.80;;;18.70;99.90;;;;;;5075835;28;20212;-84
2023/07/01 10:01:54;;;;;;;10.68;5.72;;;18.60;99.90;;;;;;5076840;28;20197;-81
2023/07/01 10:04:25;;;;;;;10.55;5.57;;;18.60;99.90;;;;;;5076119;28;20282;-83
2023/07/01 10:06:53;;;;;;;8.32;5.68;;;18.60;99.90;;;;;;5096414;28;20215;-84
2023/07/01 10:09:23;;;;;;;10.13;5.40;;;18.60;99.90;;;;;;5096441;28;20254;-85
2023/07/01 10:11:53;;;;;;;11.43;5.93;;;18.60;99.90;;;;;;5096431;28;20213;-85
2023/07/01 10:14:22;;;;;;;11.13;6.10;;;18.70;99.90;;;;;;5096403;28;20680;-82
2023/07/01 10:16:49;;;;;;;11.20;5.47;;;18.70;99.90;;;;;;5075551;28;20224;-84
2023/07/01 10:19:27;;;;;;;15.23;6.32;;;18.70;99.90;;;;;;5075534;28;20562;-87
2023/07/01 10:22:15;;;;;;;14.40;6.53;;;18.80;99.90;;;;;;5076030;28;20205;-88
2023/07/01 10:24:43;;;;;;;12.80;6.47;;;18.80;99.90;;;;;;5089938;28;20597;-90
2023/07/01 10:27:11;;;;;;;14.88;6.45;;;18.80;99.90;;;;;;5096660;28;20197;-84
2023/07/01 10:29:55;;;;;;;14.50;6.63;;;18.80;99.90;;;;;;5096543;28;20280;-87
2023/07/01 10:32:32;;;;;;;9.77;6.65;;;18.80;99.90;;;;;;5077832;28;20233;-86
2023/07/01 10:35:10;;;;;;;15.05;6.45;;;18.90;99.90;;;;;;5075865;28;20287;-83
2023/07/01 10:37:37;;;;;;;13.80;5.90;;;19.00;99.90;;;;;;5075783;28;20297;-86
2023/07/01 10:40:26;;;;;;;16.90;6.25;;;19.00;99.90;;;;;;5076063;28;20284;-85
2023/07/01 10:43:21;;;;;;;11.05;5.95;;;19.00;99.90;;;;;;5074959;28;20200;-86
2023/07/01 10:46:07;;;;;;;10.13;5.72;;;19.00;99.90;;;;;;5074943;28;20284;-83
2023/07/01 10:48:35;;;;;;;9.15;5.32;;;19.10;99.90;;;;;;5080792;28;20217;-86
2023/07/01 10:51:03;;;;;;;10.88;6.18;;;19.10;99.90;;;;;;5095060;28;20199;-83
2023/07/01 10:53:31;;;;;;;14.35;5.85;;;19.20;99.90;;;;;;5077880;28;20204;-85
2023/07/01 10:56:12;;;;;;;13.90;5.47;;;19.20;99.90;;;;;;5075340;28;20237;-84
2023/07/01 10:58:41;;;;;;;10.73;5.85;;;19.20;99.90;;;;;;5074672;28;20224;-83
2023/07/01 11:01:29;;;;;;;10.30;5.68;;;19.20;99.90;;;;;;5075609;28;20243;-83
2023/07/01 11:03:58;;;;;;;12.63;5.97;;;19.20;99.90;;;;;;5074734;28;20254;-84
2023/07/01 11:06:25;;;;;;;9.13;5.95;;;19.20;99.90;;;;;;5087700;28;20200;-84
2023/07/01 11:08:53;;;;;;;13.77;5.70;;;19.20;99.90;;;;;;5095336;28;20607;-85
2023/07/01 11:11:22;;;;;;;10.48;5.38;;;19.30;99.90;;;;;;5095750;28;20283;-87
2023/07/01 11:13:58;;;;;;;8.82;5.35;;;19.40;99.90;;;;;;5088644;28;20559;-88
2023/07/01 11:16:26;;;;;;;10.68;5.80;;;19.40;99.90;;;;;;5075162;28;20221;-83
2023/07/01 11:18:54;;;;;;;13.48;5.68;;;19.40;99.90;;;;;;5074561;28;20260;-86
2023/07/01 11:21:24;;;;;;;11.13;4.90;;;19.40;99.90;;;;;;5074836;28;20197;-86
2023/07/01 11:23:56;;;;;;;8.10;4.43;;;19.40;99.90;;;;;;5086320;28;20279;-86
2023/07/01 11:26:25;;;;;;;8.05;4.18;;;19.30;99.90;;;;;;5095642;28;20273;-81
2023/07/01 11:28:52;;;;;;;8.07;4.05;;;19.30;99.90;;;;;;5094776;28;20200;-84
2023/07/01 11:31:21;;;;;;;7.97;4.38;;;19.30;99.90;;;;;;5095324;28;20196;-86
2023/07/01 11:33:49;;;;;;;8.45;4.82;;;19.30;99.90;;;;;;5094808;28;20290;-88
2023/07/01 11:36:17;;;;;;;7.55;4.43;;;19.30;99.90;;;;;;5084389;28;20615;-83
2023/07/01 11:38:47;;;;;;;6.13;3.03;;;19.40;99.90;;;;;;5075292;28;20223;-84
2023/07/01 11:41:15;;;;;;;5.95;3.95;;;19.30;99.90;;;;;;5076276;28;20247;-90
2023/07/01 11:43:42;;;;;;;7.18;3.45;;;19.20;99.90;;;;;;5099092;28;20200;-83
2023/07/01 11:46:09;;;;;;;4.97;3.17;;;19.20;99.90;;;;;;5084709;28;20243;-83
2023/07/01 11:48:36;;;;;;;6.13;3.53;;;19.20;99.90;;;;;;5077915;28;20221;-84
2023/07/01 11:51:04;;;;;;;4.00;3.28;;;19.20;99.90;;;;;;5084350;28;20203;-85
2023/07/01 11:53:31;;;;;;;6.18;3.80;;;19.20;99.90;;;;;;5098979;28;20189;-87
2023/07/01 11:56:02;;;;;;;6.18;4.30;;;19.20;99.90;;;;;;5094742;28;20594;-83
2023/07/01 11:58:30;;;;;;;7.43;4.50;;;19.20;99.90;;;;;;5077823;28;20308;-85
2023/07/01 12:00:58;;;;;;;8.90;4.78;;;19.20;99.90;;;;;;5077992;28;20610;-85
2023/07/01 12:03:25;;;;;;;5.07;3.60;;;19.10;99.90;;;;;;5078340;28;20508;-88
2023/07/01 12:05:52;;;;;;;7.15;3.30;;;19.00;99.90;;;;;;5078221;28;20239;-85
2023/07/01 12:08:19;;;;;;;5.15;3.35;;;18.80;99.90;;;;;;5078035;28;20276;-87
2023/07/01 12:10:46;;;;;;;4.60;2.85;;;18.70;99.90;;;;;;5076926;28;20280;-82
2023/07/01 12:13:30;;;;;;;6.20;3.47;;;18.60;99.90;;;;;;5097666;28;20239;-87
2023/07/01 12:15:59;;;;;;;5.93;3.42;;;18.70;99.90;;;;;;5093815;28;20205;-88
2023/07/01 12:18:28;;;;;;;5.75;3.42;;;18.70;99.90;;;;;;5077445;28;20249;-84
2023/07/01 12:20:55;;;;;;;6.25;3.30;;;18.70;99.90;;;;;;5077443;28;20201;-87
2023/07/01 12:23:22;;;;;;;4.22;3.58;;;18.70;99.90;;;;;;5076752;28;20216;-83
2023/07/01 12:25:50;;;;;;;5.38;3.33;;;18.80;99.90;;;;;;5076841;28;20213;-82
2023/07/01 12:28:18;;;;;;;5.07;3.13;;;18.80;99.90;;;;;;5077461;28;20201;-84
2023/07/01 12:30:47;;;;;;;4.45;2.42;;;18.80;99.90;;;;;;5077346;28;20237;-84
2023/07/01 12:33:14;;;;;;;5.13;2.40;;;18.80;99.90;;;;;;5077411;28;20201;-85
2023/07/01 12:35:41;;;;;;;4.20;2.35;;;18.90;99.90;;;;;;5077782;28;20189;-85
2023/07/01 12:38:12;;;;;;;3.50;2.10;;;18.90;99.90;;;;;;5085751;28;20260;-90
2023/07/01 12:40:40;;;;;;;4.30;2.53;;;18.90;99.90;;;;;;5097810;28;20208;-86
2023/07/01 12:43:07;;;;;;;4.57;2.00;;;18.90;99.90;;;;;;5096319;28;20283;-88
2023/07/01 12:45:34;;;;;;;4.57;2.60;;;19.00;99.90;;;;;;5096563;28;20224;-88
2023/07/01 12:48:05;;;;;;;3.08;2.40;;;19.00;99.90;;;;;;5097020;28;20217;-86
2023/07/01 12:50:32;;;;;;;4.97;2.80;;;19.10;99.90;;;;;;5097353;28;20196;-87